Time;durP1;ratioP1;P1;durP2;ratioP2;P2;SDS_P1;SDS_P2;PMS_P1;PMS_P2;Temp;Humidity;BMP_temperature;BMP_pressure;BME280_temperature;BME280_humidity;BME280_pressure;Samples;Min_cycle;Max_cycle;Signal;HPM_P1;HPM_P2
2022/03/16 00:01:24;;;;;;;28.67;21.55;;;4.70;99.90;;;;;;5064023;28;20106;-68
2022/03/16 00:03:50;;;;;;;31.13;22.25;;;4.70;99.90;;;;;;5067209;28;20032;-68
2022/03/16 00:06:15;;;;;;;26.98;21.23;;;4.70;99.90;;;;;;5059553;28;20080;-68
2022/03/16 00:08:41;;;;;;;28.83;22.23;;;4.70;99.90;;;;;;5064523;28;20036;-68
2022/03/16 00:11:07;;;;;;;33.25;23.70;;;4.70;99.90;;;;;;5066483;28;20048;-68
2022/03/16 00:13:33;;;;;;;47.88;24.23;;;4.60;99.90;;;;;;5063654;28;20585;-67
2022/03/16 00:15:58;;;;;;;47.42;29.45;;;4.60;99.90;;;;;;5065309;28;20051;-68
2022/03/16 00:18:24;;;;;;;55.20;33.00;;;4.60;99.90;;;;;;5063452;28;20048;-68
2022/03/16 00:20:49;;;;;;;53.63;33.58;;;4.70;99.90;;;;;;5063075;28;20036;-68
2022/03/16 00:23:16;;;;;;;57.00;34.30;;;4.70;99.90;;;;;;5064708;28;20092;-68
2022/03/16 00:25:42;;;;;;;64.95;36.72;;;4.80;99.90;;;;;;5061762;28;20050;-68
2022/03/16 00:28:07;;;;;;;60.40;35.17;;;4.80;99.90;;;;;;5045607;28;20487;-68
2022/03/16 00:30:33;;;;;;;64.47;37.60;;;4.80;99.90;;;;;;5064847;28;20041;-68
2022/03/16 00:32:59;;;;;;;74.15;37.25;;;4.80;99.90;;;;;;5064791;28;20076;-68
2022/03/16 00:35:25;;;;;;;63.28;38.85;;;4.80;99.90;;;;;;5063289;28;20051;-68
2022/03/16 00:37:50;;;;;;;77.78;39.60;;;4.80;99.90;;;;;;5064540;28;20055;-68
2022/03/16 00:40:16;;;;;;;74.40;36.72;;;4.80;99.90;;;;;;5066418;28;20044;-68
2022/03/16 00:42:42;;;;;;;77.93;37.17;;;4.80;99.90;;;;;;5064652;28;20048;-68
2022/03/16 00:45:08;;;;;;;79.22;34.53;;;4.70;99.90;;;;;;5066034;28;20090;-68
2022/03/16 00:47:33;;;;;;;167.90;35.42;;;4.70;99.90;;;;;;5063819;28;20091;-68
2022/03/16 00:49:59;;;;;;;35.97;27.42;;;4.70;99.90;;;;;;5066440;28;20601;-68
2022/03/16 00:52:24;;;;;;;30.25;24.00;;;4.70;99.90;;;;;;5063250;28;20044;-68
2022/03/16 00:54:50;;;;;;;29.50;22.75;;;4.50;99.90;;;;;;5063392;28;20411;-68
2022/03/16 00:57:16;;;;;;;34.58;25.70;;;4.50;99.90;;;;;;5064310;28;20044;-68
2022/03/16 00:59:41;;;;;;;34.55;23.50;;;4.40;99.90;;;;;;5065324;28;20040;-68
2022/03/16 01:02:07;;;;;;;29.20;22.42;;;4.40;99.90;;;;;;5062255;28;20036;-68
2022/03/16 01:04:33;;;;;;;33.75;22.33;;;4.40;99.90;;;;;;5065286;28;20028;-68
2022/03/16 01:06:58;;;;;;;32.10;23.42;;;4.40;99.90;;;;;;5061719;28;20113;-68
2022/03/16 01:09:24;;;;;;;40.35;27.23;;;4.40;99.90;;;;;;5058127;28;20045;-68
2022/03/16 01:11:50;;;;;;;56.35;33.80;;;4.40;99.90;;;;;;5059080;28;20052;-68
2022/03/16 01:14:16;;;;;;;50.33;33.65;;;4.50;99.90;;;;;;5058545;28;20043;-68
2022/03/16 01:16:42;;;;;;;40.65;30.08;;;4.50;99.90;;;;;;5088993;28;20048;-68
2022/03/16 01:19:08;;;;;;;45.42;30.17;;;4.60;99.90;;;;;;5058533;28;20079;-68
2022/03/16 01:21:35;;;;;;;41.75;28.42;;;4.60;99.90;;;;;;5089051;28;20257;-68
2022/03/16 01:24:01;;;;;;;41.60;30.48;;;4.60;99.90;;;;;;5061591;28;20036;-68
2022/03/16 01:26:26;;;;;;;32.90;24.52;;;4.60;99.90;;;;;;5060470;28;20040;-68
2022/03/16 01:28:52;;;;;;;35.85;25.35;;;4.60;99.90;;;;;;5058613;28;20114;-68
2022/03/16 01:31:19;;;;;;;37.05;25.20;;;4.60;99.90;;;;;;5056239;28;20055;-68
2022/03/16 01:33:45;;;;;;;36.35;23.83;;;4.50;99.90;;;;;;5058417;28;20447;-68
2022/03/16 01:36:11;;;;;;;40.53;24.15;;;4.60;99.90;;;;;;5088732;28;20135;-68
2022/03/16 01:38:37;;;;;;;69.13;26.52;;;4.60;99.90;;;;;;5061120;28;20451;-68
2022/03/16 01:41:02;;;;;;;39.50;26.20;;;4.50;99.90;;;;;;5057858;28;20029;-68
2022/03/16 01:43:28;;;;;;;35.25;25.92;;;4.50;99.90;;;;;;5057833;28;20044;-67
2022/03/16 01:45:54;;;;;;;46.38;27.80;;;4.50;99.90;;;;;;5039087;28;20041;-67
2022/03/16 01:48:20;;;;;;;38.00;26.88;;;4.40;99.90;;;;;;5058361;28;20029;-68
2022/03/16 01:50:47;;;;;;;37.45;25.92;;;4.50;99.90;;;;;;5059948;28;20032;-68
2022/03/16 01:53:13;;;;;;;53.13;29.23;;;4.40;99.90;;;;;;5091682;28;20044;-68
2022/03/16 01:55:40;;;;;;;39.67;27.98;;;4.30;99.90;;;;;;5062498;28;20044;-68
2022/03/16 01:58:07;;;;;;;58.20;27.33;;;4.30;99.90;;;;;;5063787;28;20058;-68
2022/03/16 02:00:32;;;;;;;129.57;26.48;;;4.20;99.90;;;;;;5061121;28;20502;-68
2022/03/16 02:02:58;;;;;;;32.75;23.70;;;4.20;99.90;;;;;;5068004;28;20043;-68
2022/03/16 02:05:27;;;;;;;30.35;23.33;;;4.10;99.90;;;;;;5063679;28;20039;-68
2022/03/16 02:07:53;;;;;;;172.73;25.95;;;4.10;99.90;;;;;;5059203;28;20671;-68
2022/03/16 02:10:21;;;;;;;38.67;23.48;;;4.00;99.90;;;;;;5062129;28;20436;-68
2022/03/16 02:12:49;;;;;;;37.67;26.13;;;4.00;99.90;;;;;;5062836;28;20128;-68
2022/03/16 02:15:19;;;;;;;34.47;24.45;;;4.00;99.90;;;;;;5064978;28;20089;-68
2022/03/16 02:17:45;;;;;;;247.20;28.38;;;3.90;99.90;;;;;;5061480;28;20561;-68
2022/03/16 02:20:11;;;;;;;63.55;28.88;;;3.90;99.90;;;;;;5059968;28;20044;-68
2022/03/16 02:22:51;;;;;;;280.17;28.33;;;3.80;99.90;;;;;;5063222;28;20502;-68
2022/03/16 02:25:18;;;;;;;335.40;21.15;;;3.60;99.90;;;;;;5074103;28;20062;-68
2022/03/16 02:27:43;;;;;;;95.60;17.40;;;3.40;99.90;;;;;;5063488;28;20051;-68
2022/03/16 02:30:10;;;;;;;215.27;22.15;;;3.40;99.90;;;;;;5062381;28;20037;-68
2022/03/16 02:32:35;;;;;;;313.52;25.60;;;3.50;99.90;;;;;;5061316;28;20052;-68
2022/03/16 02:35:02;;;;;;;146.65;20.50;;;3.40;99.90;;;;;;5059293;28;20479;-68
2022/03/16 02:37:27;;;;;;;133.32;20.55;;;3.30;99.90;;;;;;5058760;28;20049;-68
2022/03/16 02:39:54;;;;;;;81.00;19.27;;;3.30;99.90;;;;;;5060443;28;20055;-67
2022/03/16 02:42:21;;;;;;;26.80;19.40;;;3.30;99.90;;;;;;5061380;28;20094;-68
2022/03/16 02:44:46;;;;;;;18.90;15.93;;;3.30;99.90;;;;;;5089734;28;20040;-68
2022/03/16 02:47:12;;;;;;;30.38;16.77;;;3.30;99.90;;;;;;5063226;28;20051;-68
2022/03/16 02:49:37;;;;;;;65.50;16.20;;;3.30;99.90;;;;;;5058231;28;20048;-68
2022/03/16 02:52:10;;;;;;;122.38;18.90;;;3.20;99.90;;;;;;5064137;28;20028;-68
2022/03/16 02:54:35;;;;;;;19.48;15.57;;;3.30;99.90;;;;;;5092693;27;20044;-68
2022/03/16 02:57:01;;;;;;;17.27;14.57;;;3.40;99.90;;;;;;5059332;28;20072;-68
2022/03/16 02:59:27;;;;;;;227.23;21.77;;;3.20;99.90;;;;;;5062685;28;20036;-68
2022/03/16 03:01:53;;;;;;;210.50;18.20;;;3.10;99.90;;;;;;5089337;28;20167;-68
2022/03/16 03:04:19;;;;;;;130.45;18.08;;;3.00;99.90;;;;;;5061650;28;20055;-68
2022/03/16 03:06:45;;;;;;;234.48;22.55;;;3.10;99.90;;;;;;5060774;28;20044;-68
2022/03/16 03:09:10;;;;;;;60.00;16.42;;;3.10;99.90;;;;;;5088381;28;20068;-68
2022/03/16 03:11:36;;;;;;;348.80;20.95;;;3.00;99.90;;;;;;5066519;28;20040;-68
2022/03/16 03:14:02;;;;;;;170.55;16.27;;;3.00;99.90;;;;;;5097983;27;20051;-68
2022/03/16 03:16:27;;;;;;;141.02;17.83;;;2.90;99.90;;;;;;5066767;28;20574;-67
2022/03/16 03:18:53;;;;;;;291.00;23.40;;;2.80;99.90;;;;;;5063680;28;20040;-68
2022/03/16 03:21:18;;;;;;;353.90;25.23;;;2.80;99.90;;;;;;5062815;28;20140;-68
2022/03/16 03:23:44;;;;;;;382.58;29.00;;;2.80;99.90;;;;;;5067426;28;20123;-67
2022/03/16 03:26:10;;;;;;;397.45;27.83;;;2.70;99.90;;;;;;5063636;28;20036;-68
2022/03/16 03:28:35;;;;;;;305.45;24.25;;;2.70;99.90;;;;;;5060388;28;20051;-68
2022/03/16 03:31:02;;;;;;;298.35;24.10;;;2.70;99.90;;;;;;5061137;28;20043;-68
2022/03/16 03:33:28;;;;;;;250.38;23.50;;;2.60;99.90;;;;;;5062248;28;20119;-68
2022/03/16 03:35:53;;;;;;;141.70;19.13;;;2.60;99.90;;;;;;5059537;28;20033;-68
2022/03/16 03:38:19;;;;;;;146.15;18.02;;;2.50;99.90;;;;;;5062753;28;20044;-68
2022/03/16 03:40:45;;;;;;;99.85;16.50;;;2.40;99.90;;;;;;5061376;28;20062;-68
2022/03/16 03:43:11;;;;;;;67.35;15.18;;;2.30;99.90;;;;;;5056984;28;20056;-68
2022/03/16 03:45:36;;;;;;;71.22;16.30;;;2.30;99.90;;;;;;5058939;28;20051;-67
2022/03/16 03:48:03;;;;;;;64.95;17.70;;;2.30;99.90;;;;;;5059732;28;20044;-67
2022/03/16 03:50:29;;;;;;;158.85;19.83;;;2.30;99.90;;;;;;5060419;28;20083;-68
2022/03/16 03:52:54;;;;;;;186.35;21.80;;;2.30;99.90;;;;;;5059934;28;20130;-68
2022/03/16 03:55:20;;;;;;;202.80;24.10;;;2.40;99.90;;;;;;5058320;28;20075;-68
2022/03/16 03:57:46;;;;;;;155.60;21.73;;;2.40;99.90;;;;;;5056172;28;20047;-68
2022/03/16 04:00:12;;;;;;;66.88;23.05;;;2.40;99.90;;;;;;5065270;28;20079;-68
2022/03/16 04:02:37;;;;;;;60.10;21.77;;;2.50;99.90;;;;;;5066136;28;20052;-68
2022/03/16 04:05:03;;;;;;;59.10;21.20;;;2.50;99.90;;;;;;5062592;28;20441;-67
2022/03/16 04:07:29;;;;;;;70.05;21.38;;;2.50;99.90;;;;;;5065783;28;20477;-67
2022/03/16 04:09:55;;;;;;;76.93;20.73;;;2.50;99.90;;;;;;5092407;28;20047;-68
2022/03/16 04:12:20;;;;;;;23.92;20.30;;;2.50;99.90;;;;;;5064271;28;20386;-68
2022/03/16 04:14:46;;;;;;;69.57;18.67;;;2.60;99.90;;;;;;5068049;28;20510;-68
2022/03/16 04:17:12;;;;;;;175.75;21.38;;;2.60;99.90;;;;;;5065490;28;20059;-67
2022/03/16 04:19:37;;;;;;;81.40;21.85;;;2.60;99.90;;;;;;5068173;28;20047;-67
2022/03/16 04:22:03;;;;;;;21.55;18.65;;;2.60;99.90;;;;;;5065215;28;20383;-68
2022/03/16 04:24:29;;;;;;;27.10;18.02;;;2.60;99.90;;;;;;5063711;28;20040;-67
2022/03/16 04:26:54;;;;;;;20.58;18.40;;;2.60;99.90;;;;;;5065104;28;20241;-67
2022/03/16 04:29:20;;;;;;;32.90;23.00;;;2.70;99.90;;;;;;5062607;28;20098;-68
2022/03/16 04:31:45;;;;;;;34.55;23.65;;;2.70;99.90;;;;;;5063887;28;20048;-68
2022/03/16 04:34:11;;;;;;;31.25;23.92;;;2.80;99.90;;;;;;5064037;28;20047;-67
2022/03/16 04:36:37;;;;;;;27.40;21.45;;;2.80;99.90;;;;;;5065959;28;20036;-67
2022/03/16 04:39:03;;;;;;;35.80;22.92;;;2.80;99.90;;;;;;5065426;28;20098;-68
2022/03/16 04:41:29;;;;;;;34.42;22.25;;;2.80;99.90;;;;;;5065495;28;20494;-67
2022/03/16 04:43:54;;;;;;;143.05;26.08;;;2.80;99.90;;;;;;5062335;28;20032;-67
2022/03/16 04:46:20;;;;;;;115.40;22.05;;;2.80;99.90;;;;;;5061359;28;20064;-67
2022/03/16 04:48:45;;;;;;;59.67;23.83;;;2.80;99.90;;;;;;5061051;28;20032;-67
2022/03/16 04:51:11;;;;;;;56.72;22.55;;;2.80;99.90;;;;;;5066145;28;20043;-67
2022/03/16 04:53:36;;;;;;;32.13;23.25;;;2.70;99.90;;;;;;5064382;28;20082;-67
2022/03/16 04:56:02;;;;;;;27.38;20.08;;;2.60;99.90;;;;;;5065928;28;20049;-68
2022/03/16 04:58:28;;;;;;;31.75;21.15;;;2.60;99.90;;;;;;5095121;28;20044;-67
2022/03/16 05:00:54;;;;;;;120.43;25.10;;;2.50;99.90;;;;;;5062282;28;20040;-67
2022/03/16 05:03:20;;;;;;;164.50;20.95;;;2.50;99.90;;;;;;5066650;28;20040;-67
2022/03/16 05:05:47;;;;;;;340.17;28.90;;;2.40;99.90;;;;;;5066800;28;20098;-67
2022/03/16 05:08:12;;;;;;;115.38;21.88;;;2.30;99.90;;;;;;5066145;28;20063;-67
2022/03/16 05:10:38;;;;;;;94.00;18.33;;;2.20;99.90;;;;;;5061673;28;20048;-67
2022/03/16 05:13:04;;;;;;;194.35;19.33;;;2.20;99.90;;;;;;5065828;28;20033;-67
2022/03/16 05:15:29;;;;;;;26.75;18.75;;;2.10;99.90;;;;;;5066517;28;20386;-67
2022/03/16 05:17:56;;;;;;;239.80;23.33;;;2.20;99.90;;;;;;5062517;28;20040;-67
2022/03/16 05:20:22;;;;;;;95.63;20.48;;;2.20;99.90;;;;;;5065655;28;20478;-67
2022/03/16 05:22:49;;;;;;;169.75;24.08;;;2.30;99.90;;;;;;5064556;28;20512;-67
2022/03/16 05:25:21;;;;;;;137.85;21.38;;;2.40;99.90;;;;;;5062578;28;20047;-67
2022/03/16 05:27:47;;;;;;;58.53;22.05;;;2.40;99.90;;;;;;5063108;28;20384;-67
2022/03/16 05:30:13;;;;;;;91.47;22.73;;;2.30;99.90;;;;;;5062280;28;20045;-67
2022/03/16 05:32:41;;;;;;;41.28;22.65;;;2.30;99.90;;;;;;5059284;28;20130;-67
2022/03/16 05:35:08;;;;;;;38.88;23.50;;;2.30;99.90;;;;;;5063899;28;20052;-67
2022/03/16 05:37:34;;;;;;;34.17;24.48;;;2.30;99.90;;;;;;5064935;28;20051;-67
2022/03/16 05:40:00;;;;;;;37.70;27.48;;;2.30;99.90;;;;;;5062680;28;20040;-67
2022/03/16 05:42:26;;;;;;;42.53;28.30;;;2.40;99.90;;;;;;5091386;28;20404;-67
2022/03/16 05:44:54;;;;;;;44.50;30.63;;;2.50;99.90;;;;;;5064704;28;20355;-67
2022/03/16 05:47:21;;;;;;;44.03;29.00;;;2.70;99.90;;;;;;5045157;28;20068;-67
2022/03/16 05:49:53;;;;;;;48.03;29.05;;;2.60;99.90;;;;;;5064729;28;20051;-67
2022/03/16 05:52:21;;;;;;;52.28;33.25;;;2.60;99.90;;;;;;5067595;28;20072;-67
2022/03/16 05:54:48;;;;;;;59.72;36.55;;;2.80;99.90;;;;;;5062423;28;20518;-67
2022/03/16 05:57:15;;;;;;;54.92;34.95;;;2.90;99.90;;;;;;5064598;28;20175;-67
2022/03/16 05:59:41;;;;;;;55.67;36.00;;;3.00;99.90;;;;;;5065054;28;20040;-67
2022/03/16 06:02:07;;;;;;;63.00;37.35;;;3.10;99.90;;;;;;5063665;28;20080;-67
2022/03/16 06:04:33;;;;;;;68.00;41.63;;;3.10;99.90;;;;;;5062805;28;20076;-67
2022/03/16 06:06:58;;;;;;;72.07;43.72;;;3.30;99.90;;;;;;5062873;28;20036;-67
2022/03/16 06:09:24;;;;;;;69.38;41.13;;;3.40;99.90;;;;;;5063623;28;20068;-67
2022/03/16 06:11:49;;;;;;;65.75;39.15;;;3.50;99.90;;;;;;5065665;28;20039;-67
2022/03/16 06:14:15;;;;;;;54.35;36.95;;;3.60;99.90;;;;;;5066040;28;20154;-67
2022/03/16 06:16:41;;;;;;;58.22;37.22;;;3.80;99.90;;;;;;5060389;28;20383;-67
2022/03/16 06:19:06;;;;;;;56.28;35.78;;;3.80;99.90;;;;;;5062881;28;20041;-67
2022/03/16 06:21:32;;;;;;;51.83;34.90;;;3.90;99.90;;;;;;5065574;28;20487;-67
2022/03/16 06:23:58;;;;;;;54.70;35.00;;;3.90;99.90;;;;;;5063827;28;20055;-67
2022/03/16 06:26:23;;;;;;;44.47;29.85;;;3.90;99.90;;;;;;5065399;28;20028;-67
2022/03/16 06:28:49;;;;;;;50.42;31.63;;;4.00;99.90;;;;;;5061197;28;20387;-67
2022/03/16 06:31:14;;;;;;;42.35;30.30;;;4.10;99.90;;;;;;5063600;28;20082;-67
2022/03/16 06:33:40;;;;;;;44.47;30.52;;;4.10;99.90;;;;;;5063313;28;20089;-67
2022/03/16 06:36:06;;;;;;;40.58;29.08;;;4.20;99.90;;;;;;5066177;28;20051;-67
2022/03/16 06:38:31;;;;;;;39.85;29.63;;;4.20;99.90;;;;;;5067579;28;20041;-67
2022/03/16 06:40:57;;;;;;;41.97;29.77;;;4.30;99.90;;;;;;5068669;28;20036;-67
2022/03/16 06:43:23;;;;;;;39.17;29.48;;;4.40;99.90;;;;;;5066337;28;20480;-67
2022/03/16 06:45:49;;;;;;;41.85;29.67;;;4.40;99.90;;;;;;5069839;28;20138;-68
2022/03/16 06:48:14;;;;;;;40.03;30.08;;;4.50;99.90;;;;;;5066558;28;20082;-67
2022/03/16 06:50:40;;;;;;;43.15;30.73;;;4.50;99.90;;;;;;5066719;28;20037;-67
2022/03/16 06:53:05;;;;;;;48.13;31.88;;;4.50;99.90;;;;;;5070256;28;20051;-67
2022/03/16 06:55:31;;;;;;;45.78;32.70;;;4.50;99.90;;;;;;5067004;28;20148;-67
2022/03/16 06:57:57;;;;;;;43.33;32.42;;;4.50;99.90;;;;;;5068999;28;20119;-67
2022/03/16 07:00:23;;;;;;;44.22;30.70;;;4.60;99.90;;;;;;5066016;28;20189;-67
2022/03/16 07:02:56;;;;;;;45.45;31.90;;;4.70;99.90;;;;;;5067733;28;20043;-68
2022/03/16 07:05:27;;;;;;;41.00;31.10;;;4.80;99.90;;;;;;5051163;28;20043;-67
2022/03/16 07:07:54;;;;;;;43.72;31.83;;;4.80;99.90;;;;;;5068543;28;20048;-67
2022/03/16 07:10:20;;;;;;;39.78;30.77;;;4.90;99.90;;;;;;5059356;28;20064;-68
2022/03/16 07:12:45;;;;;;;45.20;30.90;;;5.00;99.90;;;;;;5065657;28;20072;-67
2022/03/16 07:15:11;;;;;;;44.38;31.73;;;5.00;99.90;;;;;;5069108;28;20055;-68
2022/03/16 07:17:37;;;;;;;43.70;32.50;;;5.10;99.90;;;;;;5067077;28;20057;-67
2022/03/16 07:20:04;;;;;;;42.75;31.65;;;5.20;99.90;;;;;;5067563;28;20040;-67
2022/03/16 07:22:30;;;;;;;42.47;31.00;;;5.20;99.90;;;;;;5066782;28;20083;-67
2022/03/16 07:24:55;;;;;;;39.92;31.65;;;5.30;99.90;;;;;;5069101;28;20504;-67
2022/03/16 07:27:21;;;;;;;39.80;30.38;;;5.50;99.90;;;;;;5064888;28;21184;-67
2022/03/16 07:29:47;;;;;;;37.92;30.10;;;5.70;99.90;;;;;;5058701;28;20117;-68
2022/03/16 07:32:12;;;;;;;40.67;29.50;;;6.10;99.90;;;;;;5045964;28;20090;-68
2022/03/16 07:34:38;;;;;;;37.80;28.38;;;6.30;99.90;;;;;;5055873;28;20036;-68
2022/03/16 07:37:04;;;;;;;31.08;26.77;;;6.50;99.90;;;;;;5050692;28;20451;-68
2022/03/16 07:39:30;;;;;;;32.42;24.45;;;6.80;99.90;;;;;;5078257;28;20163;-68
2022/03/16 07:41:55;;;;;;;29.75;23.60;;;7.20;99.90;;;;;;5048265;28;20045;-68
2022/03/16 07:44:21;;;;;;;26.67;23.52;;;7.30;99.90;;;;;;5050770;28;20037;-68
2022/03/16 07:46:46;;;;;;;27.13;23.90;;;7.10;99.90;;;;;;5047117;28;20043;-68
2022/03/16 07:49:12;;;;;;;29.20;24.02;;;7.00;99.90;;;;;;5046334;28;20040;-68
2022/03/16 07:51:38;;;;;;;31.80;24.63;;;7.00;99.90;;;;;;5048322;28;20041;-68
2022/03/16 07:54:04;;;;;;;29.80;24.30;;;7.10;99.90;;;;;;5045877;28;20045;-68
2022/03/16 07:56:30;;;;;;;31.10;24.35;;;7.10;99.90;;;;;;5048711;28;20454;-68
2022/03/16 07:58:58;;;;;;;26.92;23.95;;;7.10;99.90;;;;;;5046387;28;20058;-68
2022/03/16 08:01:24;;;;;;;25.27;22.10;;;7.30;99.90;;;;;;5048399;28;20054;-68
2022/03/16 08:03:50;;;;;;;24.05;21.55;;;7.30;99.90;;;;;;5052640;28;20115;-68
2022/03/16 08:06:15;;;;;;;28.50;22.33;;;7.30;99.90;;;;;;5045820;28;20481;-68
2022/03/16 08:08:41;;;;;;;28.35;22.52;;;7.20;99.90;;;;;;5046303;28;20036;-68
2022/03/16 08:11:07;;;;;;;25.65;22.40;;;7.20;99.90;;;;;;5043888;28;20939;-68
2022/03/16 08:13:34;;;;;;;26.35;21.88;;;7.30;99.90;;;;;;5046894;28;20040;-68
2022/03/16 08:15:59;;;;;;;24.58;21.90;;;7.40;99.90;;;;;;5049810;28;21292;-68
2022/03/16 08:18:25;;;;;;;25.98;21.83;;;7.40;99.90;;;;;;5045887;28;20044;-68
2022/03/16 08:20:51;;;;;;;22.02;19.40;;;7.50;99.90;;;;;;5047620;28;20042;-68
2022/03/16 08:23:16;;;;;;;26.65;21.80;;;7.60;99.90;;;;;;5048037;28;20142;-68
2022/03/16 08:25:43;;;;;;;24.80;20.08;;;7.70;99.90;;;;;;5048145;28;20029;-68
2022/03/16 08:28:09;;;;;;;24.83;20.50;;;7.90;99.90;;;;;;5048154;28;20045;-68
2022/03/16 08:30:35;;;;;;;23.00;20.42;;;8.00;99.90;;;;;;5048951;28;20047;-68
2022/03/16 08:33:01;;;;;;;27.02;22.10;;;8.20;99.90;;;;;;5047712;28;20083;-68
2022/03/16 08:35:28;;;;;;;24.58;20.40;;;8.30;99.90;;;;;;5067826;28;20117;-68
2022/03/16 08:37:54;;;;;;;26.00;20.13;;;8.50;99.90;;;;;;5048963;28;20044;-68
2022/03/16 08:40:20;;;;;;;24.40;19.02;;;8.70;99.90;;;;;;5048582;28;20044;-68
2022/03/16 08:42:46;;;;;;;26.55;19.88;;;8.80;99.90;;;;;;5044361;28;20055;-68
2022/03/16 08:45:12;;;;;;;24.13;19.75;;;8.90;99.90;;;;;;5075630;28;20041;-68
2022/03/16 08:47:38;;;;;;;25.27;18.95;;;9.10;99.90;;;;;;5048961;28;21159;-68
2022/03/16 08:50:05;;;;;;;29.23;19.50;;;9.20;99.90;;;;;;5047606;28;20040;-68
2022/03/16 08:52:31;;;;;;;27.67;18.42;;;9.30;99.90;;;;;;5046600;28;20626;-68
2022/03/16 08:54:57;;;;;;;24.60;19.58;;;9.30;99.90;;;;;;5047707;28;20033;-68
2022/03/16 08:57:23;;;;;;;25.77;20.15;;;9.30;99.90;;;;;;5047547;28;20491;-68
2022/03/16 08:59:49;;;;;;;26.95;20.63;;;9.30;99.90;;;;;;5049203;28;20138;-68
2022/03/16 09:02:15;;;;;;;25.20;20.30;;;9.40;99.90;;;;;;5080836;28;20998;-68
2022/03/16 09:04:41;;;;;;;24.90;19.98;;;9.50;99.90;;;;;;5064479;28;20048;-68
2022/03/16 09:07:07;;;;;;;25.55;19.83;;;9.70;99.90;;;;;;5046273;28;20483;-68
2022/03/16 09:09:33;;;;;;;23.98;18.77;;;9.80;99.90;;;;;;5082302;28;20039;-69
2022/03/16 09:11:59;;;;;;;26.23;19.40;;;9.90;99.90;;;;;;5053012;28;20041;-68
2022/03/16 09:14:25;;;;;;;20.45;17.52;;;9.90;99.90;;;;;;5060280;28;20057;-68
2022/03/16 09:16:51;;;;;;;25.83;19.08;;;10.00;99.90;;;;;;5062280;28;20036;-69
2022/03/16 09:19:20;;;;;;;24.33;19.25;;;10.10;99.90;;;;;;5066192;28;20072;-68
2022/03/16 09:21:50;;;;;;;22.23;19.48;;;10.10;99.90;;;;;;5096483;28;20401;-68
2022/03/16 09:24:17;;;;;;;25.77;17.63;;;10.30;99.90;;;;;;5065518;28;20045;-68
2022/03/16 09:26:42;;;;;;;20.60;16.50;;;10.50;99.90;;;;;;5062170;28;20529;-69
2022/03/16 09:29:09;;;;;;;23.05;18.35;;;10.70;99.90;;;;;;5065127;28;20052;-69
2022/03/16 09:31:36;;;;;;;19.92;15.30;;;10.70;99.90;;;;;;5062630;28;20090;-69
2022/03/16 09:34:05;;;;;;;18.08;14.48;;;11.00;99.90;;;;;;5066835;28;20086;-69
2022/03/16 09:36:32;;;;;;;20.02;14.48;;;11.00;99.90;;;;;;5058885;28;20123;-69
2022/03/16 09:38:58;;;;;;;15.35;12.93;;;11.20;99.90;;;;;;5064537;28;20493;-69
2022/03/16 09:41:26;;;;;;;17.67;13.43;;;11.40;99.90;;;;;;5049253;28;20036;-69
2022/03/16 09:43:53;;;;;;;15.73;12.30;;;11.40;99.90;;;;;;5031473;28;20047;-69
2022/03/16 09:46:22;;;;;;;15.68;12.55;;;11.50;99.90;;;;;;5030119;28;21693;-69
2022/03/16 09:48:48;;;;;;;12.93;10.88;;;11.60;99.90;;;;;;5077944;28;20499;-69
2022/03/16 09:51:17;;;;;;;14.98;12.07;;;11.70;99.90;;;;;;5045861;28;20052;-69
2022/03/16 09:53:42;;;;;;;15.80;11.88;;;11.70;99.90;;;;;;5046753;28;20503;-69
2022/03/16 09:56:09;;;;;;;14.02;11.65;;;11.70;99.90;;;;;;5045480;28;20111;-69
2022/03/16 09:58:35;;;;;;;14.27;11.30;;;11.80;99.90;;;;;;5045674;28;20033;-69
2022/03/16 10:01:05;;;;;;;17.80;11.90;;;11.80;99.90;;;;;;5046329;28;20049;-70
2022/03/16 10:03:31;;;;;;;17.17;11.88;;;11.80;99.90;;;;;;5046089;28;20052;-69
2022/03/16 10:05:58;;;;;;;17.02;12.75;;;11.90;99.90;;;;;;5077295;28;20074;-69
2022/03/16 10:08:35;;;;;;;14.10;11.80;;;12.10;99.90;;;;;;5047178;28;22073;-69
2022/03/16 10:14:05;;;;;;;15.73;11.40;;;12.50;99.90;;;;;;5051794;28;20052;-69
2022/03/16 10:17:43;;;;;;;18.73;10.95;;;12.50;98.00;;;;;;5047430;28;20048;-69
2022/03/16 10:19:19;;;;;;;14.75;10.82;;;12.50;99.10;;;;;;5049201;28;20068;-70
2022/03/16 10:21:57;;;;;;;16.75;11.98;;;12.60;97.60;;;;;;5050077;28;20069;-70
2022/03/16 10:24:29;;;;;;;15.48;11.80;;;12.60;95.10;;;;;;5081805;28;20411;-69
2022/03/16 10:26:58;;;;;;;13.55;10.93;;;12.60;96.30;;;;;;5051009;28;21376;-70
2022/03/16 10:29:26;;;;;;;13.90;11.32;;;12.40;94.60;;;;;;5049367;28;21758;-70
2022/03/16 10:32:03;;;;;;;15.80;11.50;;;12.40;95.90;;;;;;5079484;28;20170;-69
2022/03/16 10:34:29;;;;;;;17.38;11.00;;;12.30;95.50;;;;;;5050027;28;20055;-70
2022/03/16 10:36:57;;;;;;;15.85;11.20;;;12.30;95.60;;;;;;5047451;28;20052;-70
2022/03/16 10:39:35;;;;;;;16.50;11.60;;;12.40;96.70;;;;;;5051138;28;21092;-70
2022/03/16 10:47:56;;;;;;;13.70;11.23;;;12.60;95.60;;;;;;5080178;28;20037;-69
2022/03/16 10:50:22;;;;;;;17.73;11.18;;;12.80;96.40;;;;;;5049613;28;20043;-70
2022/03/16 10:52:50;;;;;;;14.63;11.48;;;13.00;95.00;;;;;;5056579;28;20043;-70
2022/03/16 10:55:19;;;;;;;12.55;10.82;;;12.90;93.90;;;;;;5050067;28;20119;-70
2022/03/16 10:57:49;;;;;;;12.75;11.23;;;12.90;93.40;;;;;;5051278;28;20045;-70
2022/03/16 11:00:18;;;;;;;14.90;10.70;;;12.90;93.00;;;;;;5047453;28;20113;-70
2022/03/16 11:02:45;;;;;;;13.25;11.35;;;13.20;94.50;;;;;;5047651;28;20075;-70
2022/03/16 11:05:11;;;;;;;12.32;10.82;;;13.00;92.50;;;;;;5049461;28;21675;-70
2022/03/16 11:07:39;;;;;;;12.23;10.88;;;13.10;93.00;;;;;;5049417;28;20086;-70
2022/03/16 11:10:07;;;;;;;15.48;10.95;;;12.90;91.00;;;;;;5050251;28;20587;-70
2022/03/16 11:15:19;;;;;;;15.55;12.00;;;13.00;91.40;;;;;;5050881;28;20079;-70
2022/03/16 11:17:45;;;;;;;20.67;11.23;;;13.10;91.50;;;;;;5049341;28;20112;-70
2022/03/16 11:20:11;;;;;;;14.45;10.15;;;13.20;91.50;;;;;;5049014;28;20049;-70
2022/03/16 11:26:07;;;;;;;15.88;10.32;;;13.50;88.20;;;;;;5049316;28;20041;-70
2022/03/16 11:28:47;;;;;;;12.73;7.80;;;13.70;88.60;;;;;;5040309;28;20043;-70
2022/03/16 11:31:14;;;;;;;11.43;9.35;;;14.00;88.20;;;;;;5047450;28;20056;-70
2022/03/16 11:33:53;;;;;;;12.40;8.98;;;14.20;85.10;;;;;;5051764;28;20155;-70
2022/03/16 11:36:40;;;;;;;12.85;8.93;;;14.40;84.20;;;;;;5050597;28;20079;-70
2022/03/16 11:39:20;;;;;;;10.45;8.77;;;14.60;83.70;;;;;;5052566;28;20071;-70
2022/03/16 11:41:55;;;;;;;12.02;9.13;;;14.70;83.30;;;;;;5046805;28;20037;-70
2022/03/16 11:44:25;;;;;;;12.75;8.57;;;14.60;81.10;;;;;;5048665;28;20382;-71
2022/03/16 11:47:16;;;;;;;12.93;8.98;;;14.70;81.50;;;;;;5041270;28;20045;-70
2022/03/16 11:50:02;;;;;;;15.02;9.80;;;14.50;78.80;;;;;;5061185;28;20072;-71
2022/03/16 11:53:01;;;;;;;14.82;9.07;;;14.40;79.70;;;;;;5049770;28;20040;-71
2022/03/16 11:55:52;;;;;;;11.05;9.15;;;14.60;79.90;;;;;;5048392;28;20048;-70
2022/03/16 11:58:29;;;;;;;11.90;8.77;;;14.70;79.80;;;;;;5051876;28;20044;-71
2022/03/16 12:01:42;;;;;;;11.25;8.70;;;14.60;77.30;;;;;;5043770;28;20045;-71
2022/03/16 12:04:35;;;;;;;10.73;8.30;;;14.50;75.70;;;;;;5042680;28;20068;-71
2022/03/16 12:07:05;;;;;;;12.35;9.98;;;14.40;78.60;;;;;;5046322;28;20049;-71
2022/03/16 12:09:33;;;;;;;11.95;10.40;;;14.40;78.10;;;;;;5049872;28;20044;-70
2022/03/16 12:15:12;;;;;;;15.88;11.25;;;14.50;77.80;;;;;;5077938;28;20052;-71
2022/03/16 12:17:40;;;;;;;13.55;11.32;;;14.30;78.20;;;;;;5076886;28;20049;-70
2022/03/16 12:20:14;;;;;;;12.02;10.77;;;14.30;79.50;;;;;;5044897;28;20059;-70
2022/03/16 12:22:47;;;;;;;13.77;11.55;;;14.60;81.50;;;;;;5048053;28;20045;-70
2022/03/16 12:25:26;;;;;;;13.98;11.30;;;14.60;79.50;;;;;;5049918;28;20040;-71
2022/03/16 12:30:50;;;;;;;15.95;12.30;;;14.30;77.80;;;;;;5047326;28;20048;-71
2022/03/16 12:33:39;;;;;;;14.32;11.10;;;14.20;79.60;;;;;;5049366;28;20044;-70
2022/03/16 12:36:10;;;;;;;15.15;10.65;;;14.30;81.30;;;;;;5048009;28;20098;-70
2022/03/16 12:38:39;;;;;;;14.38;11.82;;;14.30;79.40;;;;;;5044647;28;20051;-71
2022/03/16 12:43:57;;;;;;;13.48;10.60;;;14.50;79.20;;;;;;5049283;28;20053;-71
2022/03/16 12:46:32;;;;;;;15.07;11.10;;;14.40;78.80;;;;;;5065670;22;20064;-82
2022/03/16 12:49:02;;;;;;;;;;;14.50;78.80;;;;;;5035413;28;20041;-80
2022/03/16 12:51:38;;;;;;;19.27;12.02;;;14.60;81.30;;;;;;5039628;28;19993;-78
2022/03/16 12:54:08;;;;;;;21.45;10.65;;;14.70;79.10;;;;;;5033656;28;20675;-81
2022/03/16 12:56:40;;;;;;;13.93;11.68;;;14.70;77.10;;;;;;5038830;28;20056;-78
2022/03/16 12:59:08;;;;;;;16.45;11.65;;;14.80;78.90;;;;;;5033961;28;20071;-81